sensor_id;sensor_type;location;lat;lon;timestamp;P1;durP1;ratioP1;P2;durP2;ratioP2
59998;SDS011;45859;51.378;6.736;2023-04-01T00:02:18;1.30;;;0.60;;
59998;SDS011;45859;51.378;6.736;2023-04-01T00:04:43;4.50;;;1.00;;
59998;SDS011;45859;51.378;6.736;2023-04-01T00:07:09;0.90;;;0.60;;
59998;SDS011;45859;51.378;6.736;2023-04-01T00:09:35;4.73;;;0.90;;
59998;SDS011;45859;51.378;6.736;2023-04-01T00:12:01;2.23;;;0.93;;
59998;SDS011;45859;51.378;6.736;2023-04-01T00:14:27;6.57;;;2.40;;
59998;SDS011;45859;51.378;6.736;2023-04-01T00:16:53;6.07;;;2.40;;
59998;SDS011;45859;51.378;6.736;2023-04-01T00:19:19;3.63;;;1.80;;
59998;SDS011;45859;51.378;6.736;2023-04-01T00:21:45;3.63;;;1.70;;
59998;SDS011;45859;51.378;6.736;2023-04-01T00:24:11;7.30;;;2.43;;
59998;SDS011;45859;51.378;6.736;2023-04-01T00:26:37;1.47;;;0.57;;
59998;SDS011;45859;51.378;6.736;2023-04-01T00:29:02;2.50;;;1.40;;
59998;SDS011;45859;51.378;6.736;2023-04-01T00:31:28;0.80;;;0.37;;
59998;SDS011;45859;51.378;6.736;2023-04-01T00:33:54;2.27;;;0.50;;
59998;SDS011;45859;51.378;6.736;2023-04-01T00:36:21;3.90;;;1.10;;
59998;SDS011;45859;51.378;6.736;2023-04-01T00:38:48;1.67;;;0.90;;
59998;SDS011;45859;51.378;6.736;2023-04-01T00:41:15;4.03;;;1.00;;
59998;SDS011;45859;51.378;6.736;2023-04-01T00:43:45;5.20;;;1.30;;
59998;SDS011;45859;51.378;6.736;2023-04-01T00:46:13;4.13;;;1.30;;
59998;SDS011;45859;51.378;6.736;2023-04-01T00:48:40;0.67;;;0.37;;
59998;SDS011;45859;51.378;6.736;2023-04-01T00:51:15;2.23;;;0.40;;
59998;SDS011;45859;51.378;6.736;2023-04-01T00:53:45;0.70;;;0.35;;
59998;SDS011;45859;51.378;6.736;2023-04-01T00:58:54;3.57;;;2.17;;
59998;SDS011;45859;51.378;6.736;2023-04-01T01:01:23;4.30;;;2.67;;
59998;SDS011;45859;51.378;6.736;2023-04-01T01:03:50;3.23;;;0.93;;
59998;SDS011;45859;51.378;6.736;2023-04-01T01:12:30;4.97;;;1.30;;
59998;SDS011;45859;51.378;6.736;2023-04-01T01:15:10;1.40;;;0.53;;
59998;SDS011;45859;51.378;6.736;2023-04-01T01:21:17;0.70;;;0.70;;
59998;SDS011;45859;51.378;6.736;2023-04-01T01:37:14;3.37;;;1.30;;
59998;SDS011;45859;51.378;6.736;2023-04-01T01:39:41;0.10;;;0.10;;
59998;SDS011;45859;51.378;6.736;2023-04-01T01:42:11;1.90;;;0.20;;
59998;SDS011;45859;51.378;6.736;2023-04-01T01:44:39;2.47;;;0.40;;
59998;SDS011;45859;51.378;6.736;2023-04-01T01:47:07;1.10;;;0.50;;
59998;SDS011;45859;51.378;6.736;2023-04-01T01:49:33;0.47;;;0.30;;
59998;SDS011;45859;51.378;6.736;2023-04-01T01:52:01;1.17;;;0.80;;
59998;SDS011;45859;51.378;6.736;2023-04-01T01:54:27;1.60;;;0.87;;
59998;SDS011;45859;51.378;6.736;2023-04-01T01:56:55;1.17;;;0.47;;
59998;SDS011;45859;51.378;6.736;2023-04-01T01:59:31;0.53;;;0.30;;
59998;SDS011;45859;51.378;6.736;2023-04-01T02:01:59;1.33;;;0.50;;
59998;SDS011;45859;51.378;6.736;2023-04-01T02:04:32;2.37;;;1.20;;
59998;SDS011;45859;51.378;6.736;2023-04-01T02:07:07;2.47;;;1.20;;
59998;SDS011;45859;51.378;6.736;2023-04-01T02:09:38;1.33;;;0.43;;
59998;SDS011;45859;51.378;6.736;2023-04-01T02:12:05;3.30;;;1.87;;
59998;SDS011;45859;51.378;6.736;2023-04-01T02:14:40;1.17;;;0.70;;
59998;SDS011;45859;51.378;6.736;2023-04-01T02:17:08;2.03;;;0.70;;
59998;SDS011;45859;51.378;6.736;2023-04-01T02:22:30;3.47;;;1.73;;
59998;SDS011;45859;51.378;6.736;2023-04-01T02:25:04;2.72;;;1.15;;
59998;SDS011;45859;51.378;6.736;2023-04-01T02:27:32;3.50;;;1.47;;
59998;SDS011;45859;51.378;6.736;2023-04-01T02:29:58;6.23;;;1.87;;
59998;SDS011;45859;51.378;6.736;2023-04-01T02:32:24;2.77;;;1.60;;
59998;SDS011;45859;51.378;6.736;2023-04-01T02:34:52;3.67;;;2.00;;
59998;SDS011;45859;51.378;6.736;2023-04-01T02:37:18;4.57;;;2.37;;
59998;SDS011;45859;51.378;6.736;2023-04-01T02:39:44;6.87;;;2.50;;
59998;SDS011;45859;51.378;6.736;2023-04-01T02:42:10;6.10;;;2.93;;
59998;SDS011;45859;51.378;6.736;2023-04-01T02:44:35;2.27;;;1.10;;
59998;SDS011;45859;51.378;6.736;2023-04-01T02:47:01;1.77;;;1.10;;
59998;SDS011;45859;51.378;6.736;2023-04-01T02:49:27;3.87;;;1.40;;
59998;SDS011;45859;51.378;6.736;2023-04-01T02:51:53;3.57;;;2.20;;
59998;SDS011;45859;51.378;6.736;2023-04-01T02:54:19;2.97;;;1.40;;
59998;SDS011;45859;51.378;6.736;2023-04-01T02:56:45;6.93;;;3.83;;
59998;SDS011;45859;51.378;6.736;2023-04-01T02:59:10;2.20;;;0.87;;
59998;SDS011;45859;51.378;6.736;2023-04-01T03:01:36;2.90;;;1.23;;
59998;SDS011;45859;51.378;6.736;2023-04-01T03:04:02;7.10;;;2.57;;
59998;SDS011;45859;51.378;6.736;2023-04-01T03:06:27;5.07;;;4.33;;
59998;SDS011;45859;51.378;6.736;2023-04-01T03:08:53;7.10;;;3.30;;
59998;SDS011;45859;51.378;6.736;2023-04-01T03:11:19;1.40;;;1.30;;
59998;SDS011;45859;51.378;6.736;2023-04-01T03:13:46;1.33;;;0.93;;
59998;SDS011;45859;51.378;6.736;2023-04-01T03:16:11;6.23;;;4.27;;
59998;SDS011;45859;51.378;6.736;2023-04-01T03:18:37;5.80;;;3.00;;
59998;SDS011;45859;51.378;6.736;2023-04-01T03:23:42;1.80;;;1.23;;
59998;SDS011;45859;51.378;6.736;2023-04-01T03:26:07;5.27;;;3.97;;
59998;SDS011;45859;51.378;6.736;2023-04-01T03:28:33;2.53;;;1.30;;
59998;SDS011;45859;51.378;6.736;2023-04-01T03:30:59;2.40;;;1.60;;
59998;SDS011;45859;51.378;6.736;2023-04-01T03:33:25;2.33;;;1.70;;
59998;SDS011;45859;51.378;6.736;2023-04-01T03:35:50;5.50;;;4.10;;
59998;SDS011;45859;51.378;6.736;2023-04-01T03:38:17;5.70;;;5.10;;
59998;SDS011;45859;51.378;6.736;2023-04-01T03:40:43;7.83;;;5.87;;
59998;SDS011;45859;51.378;6.736;2023-04-01T03:43:10;6.70;;;5.63;;
59998;SDS011;45859;51.378;6.736;2023-04-01T03:45:36;7.60;;;6.60;;
59998;SDS011;45859;51.378;6.736;2023-04-01T03:48:12;2.83;;;1.87;;
59998;SDS011;45859;51.378;6.736;2023-04-01T03:50:41;6.27;;;4.37;;
59998;SDS011;45859;51.378;6.736;2023-04-01T03:53:07;3.10;;;1.00;;
59998;SDS011;45859;51.378;6.736;2023-04-01T03:55:33;6.07;;;4.13;;
59998;SDS011;45859;51.378;6.736;2023-04-01T03:58:00;4.17;;;1.23;;
59998;SDS011;45859;51.378;6.736;2023-04-01T04:00:27;3.73;;;1.17;;
59998;SDS011;45859;51.378;6.736;2023-04-01T04:02:54;1.67;;;1.00;;
59998;SDS011;45859;51.378;6.736;2023-04-01T04:05:21;4.50;;;1.40;;
59998;SDS011;45859;51.378;6.736;2023-04-01T04:07:47;3.80;;;1.23;;
59998;SDS011;45859;51.378;6.736;2023-04-01T04:10:13;0.63;;;0.57;;
59998;SDS011;45859;51.378;6.736;2023-04-01T04:12:39;6.60;;;3.67;;
59998;SDS011;45859;51.378;6.736;2023-04-01T04:15:05;2.63;;;1.43;;
59998;SDS011;45859;51.378;6.736;2023-04-01T04:17:31;8.30;;;1.27;;
59998;SDS011;45859;51.378;6.736;2023-04-01T04:19:57;2.57;;;1.40;;
59998;SDS011;45859;51.378;6.736;2023-04-01T04:22:22;5.33;;;4.00;;
59998;SDS011;45859;51.378;6.736;2023-04-01T04:24:48;2.07;;;0.73;;
59998;SDS011;45859;51.378;6.736;2023-04-01T04:27:14;1.57;;;1.10;;
59998;SDS011;45859;51.378;6.736;2023-04-01T04:29:40;2.27;;;1.40;;
59998;SDS011;45859;51.378;6.736;2023-04-01T04:32:05;3.13;;;2.73;;
59998;SDS011;45859;51.378;6.736;2023-04-01T04:34:31;2.03;;;1.67;;
59998;SDS011;45859;51.378;6.736;2023-04-01T04:36:57;6.07;;;3.07;;
59998;SDS011;45859;51.378;6.736;2023-04-01T04:39:23;3.57;;;2.97;;
59998;SDS011;45859;51.378;6.736;2023-04-01T04:41:48;4.40;;;3.23;;
59998;SDS011;45859;51.378;6.736;2023-04-01T04:44:14;2.70;;;1.60;;
59998;SDS011;45859;51.378;6.736;2023-04-01T04:46:39;2.00;;;1.03;;
59998;SDS011;45859;51.378;6.736;2023-04-01T04:49:06;1.67;;;0.87;;
59998;SDS011;45859;51.378;6.736;2023-04-01T04:51:31;6.40;;;4.50;;
59998;SDS011;45859;51.378;6.736;2023-04-01T04:53:59;7.13;;;5.27;;
59998;SDS011;45859;51.378;6.736;2023-04-01T04:56:25;5.67;;;4.70;;
59998;SDS011;45859;51.378;6.736;2023-04-01T04:58:51;5.93;;;5.33;;
59998;SDS011;45859;51.378;6.736;2023-04-01T05:01:17;5.67;;;5.07;;
59998;SDS011;45859;51.378;6.736;2023-04-01T05:03:44;1.17;;;0.90;;
59998;SDS011;45859;51.378;6.736;2023-04-01T05:06:11;1.33;;;0.90;;
59998;SDS011;45859;51.378;6.736;2023-04-01T05:08:38;2.27;;;1.50;;
59998;SDS011;45859;51.378;6.736;2023-04-01T05:11:06;2.00;;;1.20;;
59998;SDS011;45859;51.378;6.736;2023-04-01T05:13:35;4.03;;;2.25;;
59998;SDS011;45859;51.378;6.736;2023-04-01T05:16:01;7.90;;;6.63;;
59998;SDS011;45859;51.378;6.736;2023-04-01T05:18:27;2.73;;;1.63;;
59998;SDS011;45859;51.378;6.736;2023-04-01T05:20:53;2.90;;;2.17;;
59998;SDS011;45859;51.378;6.736;2023-04-01T05:23:20;6.20;;;5.43;;
59998;SDS011;45859;51.378;6.736;2023-04-01T05:25:47;3.80;;;2.03;;
59998;SDS011;45859;51.378;6.736;2023-04-01T05:28:14;3.90;;;2.67;;
59998;SDS011;45859;51.378;6.736;2023-04-01T05:30:41;8.27;;;7.10;;
59998;SDS011;45859;51.378;6.736;2023-04-01T05:33:08;3.67;;;2.63;;
59998;SDS011;45859;51.378;6.736;2023-04-01T05:35:35;4.50;;;1.63;;
59998;SDS011;45859;51.378;6.736;2023-04-01T05:38:01;3.77;;;1.87;;
59998;SDS011;45859;51.378;6.736;2023-04-01T05:40:27;2.33;;;1.90;;
59998;SDS011;45859;51.378;6.736;2023-04-01T05:42:53;2.83;;;2.00;;
59998;SDS011;45859;51.378;6.736;2023-04-01T05:45:19;8.30;;;2.33;;
59998;SDS011;45859;51.378;6.736;2023-04-01T05:47:45;7.37;;;6.23;;
59998;SDS011;45859;51.378;6.736;2023-04-01T05:50:11;8.47;;;6.80;;
59998;SDS011;45859;51.378;6.736;2023-04-01T05:52:37;12.17;;;8.63;;
59998;SDS011;45859;51.378;6.736;2023-04-01T05:55:03;13.93;;;10.43;;
59998;SDS011;45859;51.378;6.736;2023-04-01T05:57:30;6.40;;;2.03;;
59998;SDS011;45859;51.378;6.736;2023-04-01T05:59:55;7.67;;;3.53;;
59998;SDS011;45859;51.378;6.736;2023-04-01T06:02:21;6.00;;;2.90;;
59998;SDS011;45859;51.378;6.736;2023-04-01T06:04:47;9.83;;;7.70;;
59998;SDS011;45859;51.378;6.736;2023-04-01T06:07:16;34.87;;;19.30;;
59998;SDS011;45859;51.378;6.736;2023-04-01T06:09:43;13.98;;;9.30;;
59998;SDS011;45859;51.378;6.736;2023-04-01T06:28:15;4.13;;;2.13;;
59998;SDS011;45859;51.378;6.736;2023-04-01T06:33:43;15.57;;;10.17;;
59998;SDS011;45859;51.378;6.736;2023-04-01T06:42:02;12.73;;;8.87;;
59998;SDS011;45859;51.378;6.736;2023-04-01T06:44:55;13.07;;;9.93;;
59998;SDS011;45859;51.378;6.736;2023-04-01T06:55:59;9.97;;;4.87;;
59998;SDS011;45859;51.378;6.736;2023-04-01T07:01:17;34.73;;;20.83;;
59998;SDS011;45859;51.378;6.736;2023-04-01T07:04:50;34.23;;;12.17;;
59998;SDS011;45859;51.378;6.736;2023-04-01T07:06:52;22.23;;;7.90;;
59998;SDS011;45859;51.378;6.736;2023-04-01T07:09:40;37.77;;;23.13;;
59998;SDS011;45859;51.378;6.736;2023-04-01T07:12:12;29.20;;;19.83;;
59998;SDS011;45859;51.378;6.736;2023-04-01T07:14:46;21.80;;;18.23;;
59998;SDS011;45859;51.378;6.736;2023-04-01T07:17:20;21.67;;;15.30;;
59998;SDS011;45859;51.378;6.736;2023-04-01T07:19:54;12.30;;;8.43;;
59998;SDS011;45859;51.378;6.736;2023-04-01T07:22:29;18.43;;;8.90;;
59998;SDS011;45859;51.378;6.736;2023-04-01T07:25:13;16.87;;;9.40;;
59998;SDS011;45859;51.378;6.736;2023-04-01T07:27:42;14.50;;;7.57;;
59998;SDS011;45859;51.378;6.736;2023-04-01T07:30:13;10.13;;;5.93;;
59998;SDS011;45859;51.378;6.736;2023-04-01T07:35:38;11.13;;;6.17;;
59998;SDS011;45859;51.378;6.736;2023-04-01T07:43:33;11.50;;;8.07;;
59998;SDS011;45859;51.378;6.736;2023-04-01T08:00:18;6.23;;;3.73;;
59998;SDS011;45859;51.378;6.736;2023-04-01T08:05:21;12.77;;;11.40;;
59998;SDS011;45859;51.378;6.736;2023-04-01T08:10:39;8.87;;;4.27;;
59998;SDS011;45859;51.378;6.736;2023-04-01T08:21:28;13.57;;;11.83;;
59998;SDS011;45859;51.378;6.736;2023-04-01T08:24:10;15.70;;;13.57;;
59998;SDS011;45859;51.378;6.736;2023-04-01T08:26:44;10.38;;;4.45;;
59998;SDS011;45859;51.378;6.736;2023-04-01T08:31:49;8.80;;;7.90;;
59998;SDS011;45859;51.378;6.736;2023-04-01T08:34:26;11.00;;;8.43;;
59998;SDS011;45859;51.378;6.736;2023-04-01T08:37:08;9.97;;;8.17;;
59998;SDS011;45859;51.378;6.736;2023-04-01T08:39:41;8.20;;;7.40;;
59998;SDS011;45859;51.378;6.736;2023-04-01T08:56:18;10.13;;;8.20;;
59998;SDS011;45859;51.378;6.736;2023-04-01T08:59:17;12.23;;;9.90;;
59998;SDS011;45859;51.378;6.736;2023-04-01T09:02:00;10.47;;;9.23;;
59998;SDS011;45859;51.378;6.736;2023-04-01T09:10:40;12.00;;;9.23;;
59998;SDS011;45859;51.378;6.736;2023-04-01T09:27:02;11.73;;;10.43;;
59998;SDS011;45859;51.378;6.736;2023-04-01T09:38:26;14.23;;;11.87;;
59998;SDS011;45859;51.378;6.736;2023-04-01T10:36:49;20.50;;;15.13;;
59998;SDS011;45859;51.378;6.736;2023-04-01T10:47:33;24.70;;;15.27;;
59998;SDS011;45859;51.378;6.736;2023-04-01T10:50:36;21.23;;;16.80;;
59998;SDS011;45859;51.378;6.736;2023-04-01T10:53:28;22.80;;;17.60;;
59998;SDS011;45859;51.378;6.736;2023-04-01T10:56:22;39.97;;;21.07;;
59998;SDS011;45859;51.378;6.736;2023-04-01T11:10:25;22.53;;;17.53;;
59998;SDS011;45859;51.378;6.736;2023-04-01T11:32:34;19.67;;;16.20;;
59998;SDS011;45859;51.378;6.736;2023-04-01T11:35:46;21.57;;;16.97;;
59998;SDS011;45859;51.378;6.736;2023-04-01T11:46:49;19.60;;;15.47;;
59998;SDS011;45859;51.378;6.736;2023-04-01T12:37:01;14.13;;;11.57;;
59998;SDS011;45859;51.378;6.736;2023-04-01T12:45:33;12.73;;;11.00;;
59998;SDS011;45859;51.378;6.736;2023-04-01T12:48:22;12.73;;;10.87;;
59998;SDS011;45859;51.378;6.736;2023-04-01T12:56:14;15.10;;;12.80;;
59998;SDS011;45859;51.378;6.736;2023-04-01T13:17:06;14.63;;;11.93;;
59998;SDS011;45859;51.378;6.736;2023-04-01T13:19:53;16.63;;;12.00;;
59998;SDS011;45859;51.378;6.736;2023-04-01T13:28:24;15.97;;;10.70;;
59998;SDS011;45859;51.378;6.736;2023-04-01T13:33:47;14.30;;;11.93;;
59998;SDS011;45859;51.378;6.736;2023-04-01T13:42:24;9.20;;;3.40;;
59998;SDS011;45859;51.378;6.736;2023-04-01T13:50:55;13.30;;;11.17;;
59998;SDS011;45859;51.378;6.736;2023-04-01T14:01:15;17.07;;;12.60;;
59998;SDS011;45859;51.378;6.736;2023-04-01T14:09:51;11.37;;;9.77;;
59998;SDS011;45859;51.378;6.736;2023-04-01T14:12:29;11.50;;;9.47;;
59998;SDS011;45859;51.378;6.736;2023-04-01T14:31:34;10.63;;;8.97;;
59998;SDS011;45859;51.378;6.736;2023-04-01T14:48:37;5.72;;;3.10;;
59998;SDS011;45859;51.378;6.736;2023-04-01T14:51:33;5.80;;;2.73;;
59998;SDS011;45859;51.378;6.736;2023-04-01T14:59:25;9.53;;;8.50;;
59998;SDS011;45859;51.378;6.736;2023-04-01T15:28:52;10.50;;;9.07;;
59998;SDS011;45859;51.378;6.736;2023-04-01T15:31:31;11.77;;;9.47;;
59998;SDS011;45859;51.378;6.736;2023-04-01T15:34:16;8.70;;;7.77;;
59998;SDS011;45859;51.378;6.736;2023-04-01T15:42:24;9.98;;;7.70;;
59998;SDS011;45859;51.378;6.736;2023-04-01T15:48:10;9.33;;;8.40;;
59998;SDS011;45859;51.378;6.736;2023-04-01T15:50:58;10.27;;;7.67;;
59998;SDS011;45859;51.378;6.736;2023-04-01T16:02:30;10.80;;;9.20;;
59998;SDS011;45859;51.378;6.736;2023-04-01T16:05:05;9.63;;;8.00;;
59998;SDS011;45859;51.378;6.736;2023-04-01T16:07:49;9.20;;;7.67;;
59998;SDS011;45859;51.378;6.736;2023-04-01T16:10:28;8.57;;;7.07;;
59998;SDS011;45859;51.378;6.736;2023-04-01T16:13:14;8.27;;;7.17;;
59998;SDS011;45859;51.378;6.736;2023-04-01T16:16:00;11.17;;;9.03;;
59998;SDS011;45859;51.378;6.736;2023-04-01T16:27:02;12.23;;;9.33;;
59998;SDS011;45859;51.378;6.736;2023-04-01T16:29:46;12.30;;;9.27;;
59998;SDS011;45859;51.378;6.736;2023-04-01T16:32:35;8.18;;;7.32;;
59998;SDS011;45859;51.378;6.736;2023-04-01T16:40:42;11.90;;;8.73;;
59998;SDS011;45859;51.378;6.736;2023-04-01T16:45:54;13.43;;;10.37;;
59998;SDS011;45859;51.378;6.736;2023-04-01T16:51:13;12.53;;;9.87;;
59998;SDS011;45859;51.378;6.736;2023-04-01T16:53:48;12.63;;;9.60;;
59998;SDS011;45859;51.378;6.736;2023-04-01T16:56:22;11.27;;;8.80;;
59998;SDS011;45859;51.378;6.736;2023-04-01T17:04:28;7.07;;;3.78;;
59998;SDS011;45859;51.378;6.736;2023-04-01T17:07:07;7.37;;;4.50;;
59998;SDS011;45859;51.378;6.736;2023-04-01T17:13:24;13.93;;;11.23;;
59998;SDS011;45859;51.378;6.736;2023-04-01T17:21:18;13.20;;;11.23;;
59998;SDS011;45859;51.378;6.736;2023-04-01T17:51:46;19.07;;;13.70;;
59998;SDS011;45859;51.378;6.736;2023-04-01T18:18:32;20.53;;;15.23;;
59998;SDS011;45859;51.378;6.736;2023-04-01T18:23:58;18.10;;;14.43;;
59998;SDS011;45859;51.378;6.736;2023-04-01T18:26:32;17.53;;;14.60;;
59998;SDS011;45859;51.378;6.736;2023-04-01T18:29:03;17.07;;;14.30;;
59998;SDS011;45859;51.378;6.736;2023-04-01T18:37:44;16.67;;;14.33;;
59998;SDS011;45859;51.378;6.736;2023-04-01T18:45:59;18.23;;;15.17;;
59998;SDS011;45859;51.378;6.736;2023-04-01T18:51:38;18.60;;;15.20;;
59998;SDS011;45859;51.378;6.736;2023-04-01T18:54:31;16.97;;;14.73;;
59998;SDS011;45859;51.378;6.736;2023-04-01T18:59:55;17.00;;;15.20;;
59998;SDS011;45859;51.378;6.736;2023-04-01T19:02:30;13.53;;;6.13;;
59998;SDS011;45859;51.378;6.736;2023-04-01T19:12:48;32.93;;;26.67;;
59998;SDS011;45859;51.378;6.736;2023-04-01T19:15:22;32.03;;;25.33;;
59998;SDS011;45859;51.378;6.736;2023-04-01T19:20:50;28.27;;;11.90;;
59998;SDS011;45859;51.378;6.736;2023-04-01T19:23:34;24.90;;;19.83;;
59998;SDS011;45859;51.378;6.736;2023-04-01T19:26:37;19.30;;;16.90;;
59998;SDS011;45859;51.378;6.736;2023-04-01T19:32:10;14.57;;;7.17;;
59998;SDS011;45859;51.378;6.736;2023-04-01T19:37:37;22.97;;;18.60;;
59998;SDS011;45859;51.378;6.736;2023-04-01T19:40:53;24.40;;;18.83;;
59998;SDS011;45859;51.378;6.736;2023-04-01T19:43:50;26.17;;;19.03;;
59998;SDS011;45859;51.378;6.736;2023-04-01T19:46:45;22.87;;;18.17;;
59998;SDS011;45859;51.378;6.736;2023-04-01T20:02:43;6.67;;;3.80;;
59998;SDS011;45859;51.378;6.736;2023-04-01T20:05:20;9.83;;;9.00;;
59998;SDS011;45859;51.378;6.736;2023-04-01T20:08:04;9.80;;;8.90;;
59998;SDS011;45859;51.378;6.736;2023-04-01T20:10:38;7.88;;;3.80;;
59998;SDS011;45859;51.378;6.736;2023-04-01T20:15:59;3.00;;;2.33;;
59998;SDS011;45859;51.378;6.736;2023-04-01T20:21:36;7.77;;;4.13;;
59998;SDS011;45859;51.378;6.736;2023-04-01T20:26:58;3.70;;;2.13;;
59998;SDS011;45859;51.378;6.736;2023-04-01T20:29:37;4.83;;;3.03;;
59998;SDS011;45859;51.378;6.736;2023-04-01T20:37:37;9.83;;;8.87;;
59998;SDS011;45859;51.378;6.736;2023-04-01T20:40:26;9.97;;;8.97;;
59998;SDS011;45859;51.378;6.736;2023-04-01T20:45:51;3.53;;;2.70;;
59998;SDS011;45859;51.378;6.736;2023-04-01T20:48:30;6.03;;;4.05;;
59998;SDS011;45859;51.378;6.736;2023-04-01T20:51:22;6.03;;;4.13;;
59998;SDS011;45859;51.378;6.736;2023-04-01T21:08:39;3.67;;;2.27;;
59998;SDS011;45859;51.378;6.736;2023-04-01T21:16:53;8.82;;;8.02;;
59998;SDS011;45859;51.378;6.736;2023-04-01T21:36:15;6.00;;;3.57;;
59998;SDS011;45859;51.378;6.736;2023-04-01T21:44:33;4.47;;;2.83;;
59998;SDS011;45859;51.378;6.736;2023-04-01T22:07:55;4.63;;;3.00;;
59998;SDS011;45859;51.378;6.736;2023-04-01T22:13:20;3.53;;;2.63;;
59998;SDS011;45859;51.378;6.736;2023-04-01T22:18:29;4.30;;;2.77;;
59998;SDS011;45859;51.378;6.736;2023-04-01T22:21:04;8.33;;;7.63;;
59998;SDS011;45859;51.378;6.736;2023-04-01T22:23:50;4.97;;;2.87;;
59998;SDS011;45859;51.378;6.736;2023-04-01T22:26:38;4.50;;;2.45;;
59998;SDS011;45859;51.378;6.736;2023-04-01T22:35:03;4.50;;;2.80;;
59998;SDS011;45859;51.378;6.736;2023-04-01T22:43:10;6.33;;;3.70;;
59998;SDS011;45859;51.378;6.736;2023-04-01T22:48:39;6.27;;;3.93;;
59998;SDS011;45859;51.378;6.736;2023-04-01T22:53:57;4.30;;;2.70;;
59998;SDS011;45859;51.378;6.736;2023-04-01T22:57:31;5.07;;;3.33;;
59998;SDS011;45859;51.378;6.736;2023-04-01T22:59:35;4.63;;;3.27;;
59998;SDS011;45859;51.378;6.736;2023-04-01T23:02:14;6.60;;;4.43;;
59998;SDS011;45859;51.378;6.736;2023-04-01T23:04:53;8.57;;;4.33;;
59998;SDS011;45859;51.378;6.736;2023-04-01T23:10:57;3.40;;;2.57;;
59998;SDS011;45859;51.378;6.736;2023-04-01T23:13:18;2.67;;;2.08;;
59998;SDS011;45859;51.378;6.736;2023-04-01T23:15:52;4.43;;;2.67;;
59998;SDS011;45859;51.378;6.736;2023-04-01T23:18:24;3.70;;;2.43;;
59998;SDS011;45859;51.378;6.736;2023-04-01T23:26:30;5.50;;;2.60;;
59998;SDS011;45859;51.378;6.736;2023-04-01T23:29:00;5.40;;;2.83;;
59998;SDS011;45859;51.378;6.736;2023-04-01T23:31:37;4.00;;;2.70;;
59998;SDS011;45859;51.378;6.736;2023-04-01T23:36:49;3.77;;;2.33;;
59998;SDS011;45859;51.378;6.736;2023-04-01T23:39:22;3.83;;;2.20;;
59998;SDS011;45859;51.378;6.736;2023-04-01T23:41:52;4.27;;;2.70;;
59998;SDS011;45859;51.378;6.736;2023-04-01T23:44:20;4.20;;;2.77;;
59998;SDS011;45859;51.378;6.736;2023-04-01T23:46:49;4.73;;;3.37;;
59998;SDS011;45859;51.378;6.736;2023-04-01T23:49:18;4.03;;;2.60;;
59998;SDS011;45859;51.378;6.736;2023-04-01T23:51:58;4.77;;;3.07;;
59998;SDS011;45859;51.378;6.736;2023-04-01T23:56:56;4.30;;;2.03;;
59998;SDS011;45859;51.378;6.736;2023-04-01T23:59:43;4.57;;;3.23;;
